createdAt,value
2022-11-20T00:00:05.374Z,21.35
2022-11-20T00:02:07.135Z,21.37
2022-11-20T00:04:09.460Z,21.38
2022-11-20T00:06:12.908Z,21.38
2022-11-20T00:08:14.693Z,21.38
2022-11-20T00:10:16.386Z,21.37
2022-11-20T00:12:18.076Z,21.37
2022-11-20T00:14:19.849Z,21.39
2022-11-20T00:16:23.468Z,21.39
2022-11-20T00:18:25.713Z,21.37
2022-11-20T00:20:27.474Z,21.38
2022-11-20T00:22:29.190Z,21.39
2022-11-20T00:24:30.912Z,21.39
2022-11-20T00:26:32.642Z,21.38
2022-11-20T00:28:34.931Z,21.38
2022-11-20T00:30:36.702Z,21.38
2022-11-20T00:32:38.426Z,21.38
2022-11-20T00:34:40.133Z,21.34
2022-11-20T00:36:41.852Z,21.35
2022-11-20T00:38:43.868Z,21.34
2022-11-20T00:40:45.677Z,21.33
2022-11-20T00:42:47.493Z,21.33
2022-11-20T00:44:49.236Z,21.33
2022-11-20T00:46:50.901Z,21.35
2022-11-20T00:48:52.921Z,21.33
2022-11-20T00:50:54.650Z,21.32
2022-11-20T00:52:56.415Z,21.30
2022-11-20T00:54:58.102Z,21.30
2022-11-20T00:56:59.837Z,21.30
2022-11-20T00:59:01.634Z,21.28
2022-11-20T01:01:07.844Z,21.28
2022-11-20T01:03:09.533Z,21.27
2022-11-20T01:05:11.269Z,21.27
2022-11-20T01:07:13.040Z,21.29
2022-11-20T01:09:15.061Z,21.29
2022-11-20T01:11:22.098Z,21.29
2022-11-20T01:13:25.805Z,21.29
2022-11-20T01:15:27.610Z,21.29
2022-11-20T01:17:29.368Z,21.28
2022-11-20T01:19:31.108Z,21.26
2022-11-20T01:21:34.854Z,21.25
2022-11-20T01:23:37.651Z,21.22
2022-11-20T01:25:39.384Z,21.21
2022-11-20T01:27:41.080Z,21.20
2022-11-20T01:29:42.767Z,21.18
2022-11-20T01:31:44.630Z,21.17
2022-11-20T01:33:47.104Z,21.17
2022-11-20T01:35:48.773Z,21.17
2022-11-20T01:37:51.334Z,21.17
2022-11-20T01:39:53.052Z,21.17
2022-11-20T01:41:55.188Z,21.16
2022-11-20T01:43:56.872Z,21.15
2022-11-20T01:46:13.870Z,21.15
2022-11-20T01:48:15.538Z,21.13
2022-11-20T01:50:26.222Z,21.11
2022-11-20T01:52:31.766Z,21.13
2022-11-20T01:54:36.929Z,21.11
2022-11-20T01:56:40.199Z,21.11
2022-11-20T01:58:45.360Z,21.11
2022-11-20T02:00:47.129Z,21.10
2022-11-20T02:03:01.724Z,21.10
2022-11-20T02:05:23.492Z,21.10
2022-11-20T02:07:25.488Z,21.09
2022-11-20T02:09:28.528Z,21.08
2022-11-20T02:11:31.792Z,21.10
2022-11-20T02:13:34.641Z,21.10
2022-11-20T02:15:36.601Z,21.13
2022-11-20T02:17:38.633Z,21.14
2022-11-20T02:19:41.034Z,21.14
2022-11-20T02:22:12.204Z,21.13
2022-11-20T02:24:15.864Z,21.14
2022-11-20T02:26:17.593Z,21.13
2022-11-20T02:28:19.391Z,21.11
2022-11-20T02:30:21.109Z,21.11
2022-11-20T02:32:25.078Z,21.11
2022-11-20T02:34:26.785Z,21.11
2022-11-20T02:36:28.496Z,21.10
2022-11-20T02:38:30.286Z,21.09
2022-11-20T02:40:32.033Z,21.08
2022-11-20T02:42:33.717Z,21.07
2022-11-20T02:44:35.425Z,21.07
2022-11-20T02:46:37.129Z,21.06
2022-11-20T02:48:38.877Z,21.06
2022-11-20T02:50:40.541Z,21.06
2022-11-20T02:52:42.612Z,21.05
2022-11-20T02:54:44.346Z,21.05
2022-11-20T02:56:46.035Z,21.04
2022-11-20T02:58:47.762Z,21.03
2022-11-20T03:00:49.470Z,21.04
2022-11-20T03:02:51.228Z,21.02
2022-11-20T03:04:53.028Z,21.02
2022-11-20T03:06:54.771Z,21.04
2022-11-20T03:08:56.524Z,21.02
2022-11-20T03:10:58.252Z,21.03
2022-11-20T03:12:59.939Z,21.04
2022-11-20T03:15:01.797Z,21.03
2022-11-20T03:17:03.576Z,21.04
2022-11-20T03:19:05.326Z,21.03
2022-11-20T03:21:07.126Z,21.02
2022-11-20T03:23:08.814Z,21.03
2022-11-20T03:25:10.470Z,21.06
2022-11-20T03:27:12.214Z,21.10
2022-11-20T03:29:14.141Z,21.14
2022-11-20T03:31:16.483Z,21.17
2022-11-20T03:33:18.129Z,21.20
2022-11-20T03:35:19.820Z,21.19
2022-11-20T03:37:21.517Z,21.19
2022-11-20T03:39:23.429Z,21.21
2022-11-20T03:41:27.199Z,21.23
2022-11-20T03:43:28.983Z,21.26
2022-11-20T03:45:30.726Z,21.27
2022-11-20T03:47:32.380Z,21.30
2022-11-20T03:49:34.070Z,21.32
2022-11-20T03:51:36.577Z,21.33
2022-11-20T03:53:39.065Z,21.36
2022-11-20T03:55:40.757Z,21.40
2022-11-20T03:57:42.505Z,21.39
2022-11-20T03:59:44.296Z,21.39
2022-11-20T04:01:49.599Z,21.37
2022-11-20T04:03:53.222Z,21.35
2022-11-20T04:05:54.948Z,21.33
2022-11-20T04:07:56.582Z,21.31
2022-11-20T04:09:58.254Z,21.29
2022-11-20T04:12:01.172Z,21.26
2022-11-20T04:14:04.677Z,21.25
2022-11-20T04:16:07.469Z,21.24
2022-11-20T04:18:09.173Z,21.21
2022-11-20T04:20:12.108Z,21.21
2022-11-20T04:22:13.917Z,21.19
2022-11-20T04:24:15.994Z,21.16
2022-11-20T04:26:17.708Z,21.15
2022-11-20T04:28:19.490Z,21.14
2022-11-20T04:30:21.201Z,21.11
2022-11-20T04:32:22.930Z,21.08
2022-11-20T04:34:24.625Z,21.08
2022-11-20T04:36:27.512Z,21.06
2022-11-20T04:38:29.151Z,21.05
2022-11-20T04:40:31.069Z,21.02
2022-11-20T04:42:32.787Z,21.02
2022-11-20T04:44:35.049Z,21.00
2022-11-20T04:46:38.948Z,20.98
2022-11-20T04:48:40.993Z,20.96
2022-11-20T04:50:42.739Z,20.95
2022-11-20T04:52:44.487Z,20.95
2022-11-20T04:54:46.137Z,20.93
2022-11-20T04:56:51.160Z,20.94
2022-11-20T04:58:52.815Z,20.93
2022-11-20T05:00:54.947Z,20.93
2022-11-20T05:02:56.681Z,20.94
2022-11-20T05:04:58.385Z,20.93
2022-11-20T05:07:00.183Z,20.93
2022-11-20T05:09:01.934Z,20.93
2022-11-20T05:11:16.856Z,20.90
2022-11-20T05:13:18.362Z,20.92
2022-11-20T05:15:20.118Z,20.92
2022-11-20T05:17:21.939Z,20.90
2022-11-20T05:19:23.828Z,20.89
2022-11-20T05:21:25.574Z,20.90
2022-11-20T05:23:27.283Z,20.90
2022-11-20T05:25:29.107Z,20.91
2022-11-20T05:27:30.859Z,20.90
2022-11-20T05:29:32.489Z,20.91
2022-11-20T05:31:34.221Z,20.94
2022-11-20T05:33:36.331Z,20.93
2022-11-20T05:35:38.118Z,20.93
2022-11-20T05:37:39.821Z,20.95
2022-11-20T05:39:41.519Z,20.94
2022-11-20T05:41:43.192Z,20.95
2022-11-20T05:43:45.711Z,20.94
2022-11-20T05:45:54.635Z,20.95
2022-11-20T05:47:59.607Z,20.96
2022-11-20T05:50:01.264Z,20.96
2022-11-20T05:52:02.964Z,20.95
2022-11-20T05:54:04.638Z,20.97
2022-11-20T05:56:08.147Z,21.02
2022-11-20T05:58:09.942Z,21.07
2022-11-20T06:00:12.244Z,21.14
2022-11-20T06:02:13.960Z,21.21
2022-11-20T06:04:15.627Z,21.25
2022-11-20T06:06:17.731Z,21.32
2022-11-20T06:08:20.461Z,21.39
2022-11-20T06:10:22.175Z,21.44
2022-11-20T06:12:23.922Z,21.51
2022-11-20T06:14:25.728Z,21.56
2022-11-20T06:16:27.979Z,21.63
2022-11-20T06:18:33.620Z,21.69
2022-11-20T06:20:40.823Z,21.73
2022-11-20T06:22:43.713Z,21.77
2022-11-20T06:24:45.403Z,21.81
2022-11-20T06:26:47.149Z,21.86
2022-11-20T06:28:48.936Z,21.88
2022-11-20T06:30:50.670Z,21.91
2022-11-20T06:32:52.438Z,21.93
2022-11-20T06:34:54.154Z,21.95
2022-11-20T06:36:55.931Z,21.98
2022-11-20T06:38:57.623Z,22.01
2022-11-20T06:40:59.433Z,22.04
2022-11-20T06:43:01.421Z,22.08
2022-11-20T06:45:03.149Z,22.10
2022-11-20T06:47:04.775Z,22.13
2022-11-20T06:49:06.502Z,22.14
2022-11-20T06:51:08.273Z,22.15
2022-11-20T06:53:10.002Z,22.17
2022-11-20T06:55:11.621Z,22.18
2022-11-20T06:57:13.459Z,22.22
2022-11-20T06:59:15.214Z,22.24
2022-11-20T07:01:16.948Z,22.26
2022-11-20T07:03:18.638Z,22.28
2022-11-20T07:05:20.239Z,22.31
2022-11-20T07:07:21.860Z,22.33
2022-11-20T07:09:23.868Z,22.33
2022-11-20T07:11:25.770Z,22.35
2022-11-20T07:13:28.291Z,22.36
2022-11-20T07:15:30.042Z,22.36
2022-11-20T07:17:31.832Z,22.38
2022-11-20T07:19:33.485Z,22.41
2022-11-20T07:21:35.240Z,22.41
2022-11-20T07:23:37.359Z,22.43
2022-11-20T07:25:39.871Z,22.44
2022-11-20T07:27:41.585Z,22.45
2022-11-20T07:29:43.288Z,22.46
2022-11-20T07:31:45.297Z,22.47
2022-11-20T07:33:47.752Z,22.47
2022-11-20T07:35:49.641Z,22.49
2022-11-20T07:37:51.527Z,22.51
2022-11-20T07:39:53.385Z,22.55
2022-11-20T07:41:55.008Z,22.56
2022-11-20T07:43:56.660Z,22.58
2022-11-20T07:45:58.914Z,22.58
2022-11-20T07:48:00.531Z,22.58
2022-11-20T07:50:02.264Z,22.63
2022-11-20T07:52:06.076Z,22.68
2022-11-20T07:54:07.808Z,22.69
2022-11-20T07:56:09.795Z,22.69
2022-11-20T07:58:11.523Z,22.69
2022-11-20T08:00:14.288Z,22.70
2022-11-20T08:02:16.030Z,22.70
2022-11-20T08:04:17.630Z,22.71
2022-11-20T08:06:19.475Z,22.73
2022-11-20T08:08:21.419Z,22.75
2022-11-20T08:10:23.313Z,22.77
2022-11-20T08:12:25.114Z,22.75
2022-11-20T08:14:26.805Z,22.69
2022-11-20T08:16:28.534Z,22.67
2022-11-20T08:18:32.245Z,22.66
2022-11-20T08:20:34.980Z,22.68
2022-11-20T08:22:36.719Z,22.69
2022-11-20T08:24:38.393Z,22.68
2022-11-20T08:26:40.531Z,22.66
2022-11-20T08:28:42.231Z,22.63
2022-11-20T08:30:44.172Z,22.56
2022-11-20T08:32:45.946Z,22.53
2022-11-20T08:34:47.665Z,22.48
2022-11-20T08:36:49.351Z,22.45
2022-11-20T08:38:52.233Z,22.40
2022-11-20T08:40:57.943Z,22.35
2022-11-20T08:42:59.833Z,22.29
2022-11-20T08:45:01.480Z,22.25
2022-11-20T08:47:03.156Z,22.21
2022-11-20T08:49:05.889Z,22.20
2022-11-20T08:51:07.724Z,22.16
2022-11-20T08:53:09.598Z,22.12
2022-11-20T08:55:11.403Z,22.09
2022-11-20T08:57:13.151Z,22.08
2022-11-20T09:01:36.551Z,22.01
2022-11-20T09:03:38.332Z,21.99
2022-11-20T09:05:41.129Z,21.95
2022-11-20T09:07:42.941Z,21.90
2022-11-20T09:09:46.346Z,21.87
2022-11-20T09:11:48.234Z,21.85
2022-11-20T09:13:50.001Z,21.82
2022-11-20T09:15:59.845Z,21.83
2022-11-20T09:18:02.777Z,21.84
2022-11-20T09:20:04.979Z,21.86
2022-11-20T09:22:07.363Z,21.85
2022-11-20T09:24:09.526Z,21.87
2022-11-20T09:26:12.420Z,21.87
2022-11-20T09:28:14.140Z,21.86
2022-11-20T09:30:18.066Z,21.84
2022-11-20T09:32:20.149Z,21.82
2022-11-20T09:34:21.823Z,21.80
2022-11-20T09:36:23.525Z,21.79
2022-11-20T09:38:25.387Z,21.78
2022-11-20T09:40:28.881Z,21.76
2022-11-20T09:43:04.463Z,21.74
2022-11-20T09:45:26.345Z,21.72
2022-11-20T09:47:58.264Z,21.70
2022-11-20T09:50:16.026Z,21.68
2022-11-20T09:52:32.970Z,21.67
2022-11-20T09:54:37.144Z,21.66
2022-11-20T09:56:41.507Z,21.64
2022-11-20T09:58:44.894Z,21.63
2022-11-20T10:00:46.677Z,21.61
2022-11-20T10:03:00.551Z,21.60
2022-11-20T10:05:18.294Z,21.61
2022-11-20T10:07:39.777Z,21.59
2022-11-20T10:09:44.791Z,21.60
2022-11-20T10:12:13.526Z,21.59
2022-11-20T10:14:30.642Z,21.57
2022-11-20T10:16:41.163Z,21.56
2022-11-20T10:18:56.378Z,21.55
2022-11-20T10:21:00.500Z,21.53
2022-11-20T10:23:35.965Z,21.50
2022-11-20T10:25:44.234Z,21.49
2022-11-20T10:27:54.322Z,21.48
2022-11-20T10:30:10.334Z,21.53
2022-11-20T10:32:16.317Z,21.62
2022-11-20T10:34:23.185Z,21.72
2022-11-20T10:36:31.907Z,21.84
2022-11-20T10:38:46.610Z,21.94
2022-11-20T10:41:00.306Z,22.04
2022-11-20T10:43:29.776Z,22.13
2022-11-20T10:45:39.471Z,22.22
2022-11-20T10:47:41.155Z,22.30
2022-11-20T10:49:43.455Z,22.41
2022-11-20T10:51:54.326Z,22.54
2022-11-20T10:54:06.934Z,22.68
2022-11-20T10:56:24.374Z,22.81
2022-11-20T10:58:58.372Z,22.89
2022-11-20T11:01:18.956Z,22.95
2022-11-20T11:03:29.304Z,22.99
2022-11-20T11:05:42.135Z,23.02
2022-11-20T11:07:45.312Z,23.07
2022-11-20T11:09:54.137Z,23.10
2022-11-20T11:12:00.753Z,23.15
2022-11-20T11:14:15.918Z,23.23
2022-11-20T11:16:28.482Z,23.29
2022-11-20T11:18:36.435Z,23.37
2022-11-20T11:20:41.456Z,23.45
2022-11-20T11:22:47.109Z,23.52
2022-11-20T11:24:55.046Z,23.60
2022-11-20T11:27:03.699Z,23.69
2022-11-20T11:29:05.437Z,23.77
2022-11-20T11:31:07.117Z,23.84
2022-11-20T11:33:13.330Z,23.94
2022-11-20T11:35:26.910Z,24.00
2022-11-20T11:37:33.370Z,24.04
2022-11-20T11:39:42.764Z,24.12
2022-11-20T11:42:12.313Z,24.18
2022-11-20T11:44:30.769Z,24.23
2022-11-20T11:46:36.402Z,24.27
2022-11-20T11:48:38.130Z,24.31
2022-11-20T11:50:39.820Z,24.31
2022-11-20T11:53:13.629Z,24.28
2022-11-20T11:55:18.732Z,24.28
2022-11-20T11:57:45.300Z,24.32
2022-11-20T11:59:59.056Z,24.28
2022-11-20T12:02:03.146Z,24.29
2022-11-20T12:04:13.386Z,24.24
2022-11-20T12:06:15.869Z,24.19
2022-11-20T12:08:32.789Z,24.15
2022-11-20T12:10:40.714Z,24.14
2022-11-20T12:12:45.404Z,24.10
2022-11-20T12:14:48.483Z,24.08
2022-11-20T12:16:50.271Z,24.04
2022-11-20T12:18:53.234Z,24.02
2022-11-20T12:21:16.822Z,23.99
2022-11-20T12:23:23.086Z,23.97
2022-11-20T12:25:36.360Z,23.96
2022-11-20T12:27:53.743Z,23.95
2022-11-20T12:30:04.660Z,23.93
2022-11-20T12:32:18.902Z,23.91
2022-11-20T12:34:25.272Z,23.87
2022-11-20T12:36:41.172Z,23.87
2022-11-20T12:38:48.855Z,23.86
2022-11-20T12:41:11.843Z,23.86
2022-11-20T12:43:13.585Z,23.85
2022-11-20T12:45:32.893Z,23.83
2022-11-20T12:48:03.928Z,23.83
2022-11-20T12:50:53.292Z,23.81
2022-11-20T12:53:11.231Z,23.82
2022-11-20T12:55:49.660Z,23.86
2022-11-20T12:57:56.225Z,23.88
2022-11-20T13:00:08.053Z,23.94
2022-11-20T13:02:27.227Z,23.95
2022-11-20T13:04:50.826Z,23.97
2022-11-20T13:06:52.653Z,23.99
2022-11-20T13:08:55.775Z,24.01
2022-11-20T13:11:05.047Z,24.03
2022-11-20T13:13:45.416Z,24.04
2022-11-20T13:16:04.981Z,24.08
2022-11-20T13:18:09.842Z,24.12
2022-11-20T13:20:16.746Z,24.27
2022-11-20T13:22:25.978Z,24.29
2022-11-20T13:24:29.206Z,24.26
2022-11-20T13:26:30.951Z,24.22
2022-11-20T13:28:32.650Z,24.16
2022-11-20T13:30:34.599Z,24.10
2022-11-20T13:32:38.401Z,24.10
2022-11-20T13:34:40.191Z,24.09
2022-11-20T13:36:52.980Z,24.07
2022-11-20T13:38:56.195Z,24.05
2022-11-20T13:41:01.878Z,23.99
2022-11-20T13:43:32.326Z,23.95
2022-11-20T13:45:34.116Z,23.88
2022-11-20T13:47:35.947Z,23.84
2022-11-20T13:49:45.012Z,23.82
2022-11-20T13:51:48.276Z,23.74
2022-11-20T13:54:00.644Z,23.70
2022-11-20T13:56:11.152Z,23.73
2022-11-20T13:58:41.629Z,23.80
2022-11-20T14:00:58.530Z,23.84
2022-11-20T14:03:06.444Z,23.84
2022-11-20T14:05:24.513Z,23.89
2022-11-20T14:07:28.928Z,23.92
2022-11-20T14:09:33.772Z,23.94
2022-11-20T14:11:35.559Z,23.97
2022-11-20T14:13:37.548Z,23.96
2022-11-20T14:15:44.405Z,23.91
2022-11-20T14:17:47.258Z,23.82
2022-11-20T14:19:50.574Z,23.74
2022-11-20T14:22:07.582Z,23.66
2022-11-20T14:24:11.970Z,23.54
2022-11-20T14:26:14.887Z,23.47
2022-11-20T14:28:29.824Z,23.39
2022-11-20T14:30:43.834Z,23.35
2022-11-20T14:32:45.799Z,23.26
2022-11-20T14:34:48.697Z,23.23
2022-11-20T14:36:57.132Z,23.20
2022-11-20T14:38:59.290Z,23.19
2022-11-20T14:41:17.308Z,23.18
2022-11-20T14:43:21.436Z,23.13
2022-11-20T14:45:25.755Z,23.11
2022-11-20T14:47:31.917Z,23.14
2022-11-20T14:49:33.786Z,23.17
2022-11-20T14:51:37.619Z,23.18
2022-11-20T14:53:40.220Z,23.26
2022-11-20T14:55:42.090Z,23.34
2022-11-20T14:57:45.124Z,23.40
2022-11-20T14:59:48.428Z,23.40
2022-11-20T15:02:05.710Z,23.36
2022-11-20T15:04:12.325Z,23.31
2022-11-20T15:06:15.785Z,23.29
2022-11-20T15:08:18.058Z,23.26
2022-11-20T15:10:27.652Z,23.28
2022-11-20T15:12:31.471Z,23.36
2022-11-20T15:14:33.425Z,23.47
2022-11-20T15:16:35.149Z,23.56
2022-11-20T15:18:41.232Z,23.62
2022-11-20T15:20:43.015Z,23.67
2022-11-20T15:22:44.804Z,23.72
2022-11-20T15:24:47.543Z,23.76
2022-11-20T15:26:49.359Z,23.82
2022-11-20T15:28:51.362Z,23.84
2022-11-20T15:30:53.207Z,23.86
2022-11-20T15:32:55.011Z,23.89
2022-11-20T15:34:57.262Z,23.93
2022-11-20T15:36:59.256Z,23.95
2022-11-20T15:39:00.936Z,23.98
2022-11-20T15:41:02.587Z,24.03
2022-11-20T15:43:08.335Z,24.08
2022-11-20T15:45:14.581Z,24.13
2022-11-20T15:47:16.920Z,24.17
2022-11-20T15:49:18.777Z,24.21
2022-11-20T15:51:31.857Z,24.24
2022-11-20T15:53:33.597Z,24.25
2022-11-20T15:55:35.524Z,24.22
2022-11-20T15:57:37.924Z,24.24
2022-11-20T15:59:40.305Z,24.24
2022-11-20T16:01:42.649Z,24.26
2022-11-20T16:03:44.438Z,24.25
2022-11-20T16:05:46.305Z,24.23
2022-11-20T16:07:48.102Z,24.21
2022-11-20T16:09:49.894Z,24.21
2022-11-20T16:11:51.759Z,24.20
2022-11-20T16:13:53.623Z,24.16
2022-11-20T16:15:57.612Z,24.12
2022-11-20T16:18:00.542Z,24.09
2022-11-20T16:20:02.184Z,24.08
2022-11-20T16:22:04.060Z,24.09
2022-11-20T16:24:06.773Z,24.11
2022-11-20T16:26:16.302Z,24.13
2022-11-20T16:28:19.267Z,24.15
2022-11-20T16:30:21.258Z,24.20
2022-11-20T16:32:23.021Z,24.24
2022-11-20T16:34:24.996Z,24.27
2022-11-20T16:36:27.843Z,24.29
2022-11-20T16:38:29.643Z,24.32
2022-11-20T16:40:31.317Z,24.35
2022-11-20T16:42:36.224Z,24.38
2022-11-20T16:44:37.955Z,24.40
2022-11-20T16:46:41.053Z,24.41
2022-11-20T16:48:42.913Z,24.44
2022-11-20T16:50:51.383Z,24.45
2022-11-20T16:52:53.033Z,24.46
2022-11-20T16:54:54.715Z,24.50
2022-11-20T16:56:56.370Z,24.51
2022-11-20T16:58:59.167Z,24.52
2022-11-20T17:01:07.001Z,24.56
2022-11-20T17:03:08.979Z,24.57
2022-11-20T17:05:10.783Z,24.60
2022-11-20T17:07:12.533Z,24.61
2022-11-20T17:09:15.441Z,24.62
2022-11-20T17:11:18.335Z,24.63
2022-11-20T17:13:20.105Z,24.63
2022-11-20T17:15:21.857Z,24.64
2022-11-20T17:17:23.582Z,24.65
2022-11-20T17:19:25.281Z,24.66
2022-11-20T17:21:27.137Z,24.68
2022-11-20T17:23:28.845Z,24.69
2022-11-20T17:25:32.928Z,24.69
2022-11-20T17:27:40.303Z,24.72
2022-11-20T17:30:03.703Z,24.73
2022-11-20T17:32:05.602Z,24.74
2022-11-20T17:34:08.483Z,24.74
2022-11-20T17:36:11.192Z,24.77
2022-11-20T17:38:12.871Z,24.78
2022-11-20T17:40:15.928Z,24.80
2022-11-20T17:42:17.606Z,24.79
2022-11-20T17:44:19.454Z,24.82
2022-11-20T17:46:23.806Z,24.83
2022-11-20T17:48:25.707Z,24.84
2022-11-20T17:50:27.400Z,24.83
2022-11-20T17:52:29.045Z,24.83
2022-11-20T17:54:30.660Z,24.84
2022-11-20T17:56:33.168Z,24.84
2022-11-20T17:58:34.899Z,24.75
2022-11-20T18:00:36.591Z,24.68
2022-11-20T18:02:39.382Z,24.58
2022-11-20T18:05:05.106Z,24.52
2022-11-20T18:07:06.730Z,24.46
2022-11-20T18:09:08.500Z,24.36
2022-11-20T18:11:11.557Z,24.29
2022-11-20T18:13:13.286Z,24.22
2022-11-20T18:15:39.415Z,24.18
2022-11-20T18:17:41.311Z,24.14
2022-11-20T18:20:13.706Z,24.11
2022-11-20T18:22:12.570Z,24.10
2022-11-20T18:24:14.269Z,24.13
2022-11-20T18:26:16.048Z,24.16
2022-11-20T18:28:17.770Z,24.21
2022-11-20T18:30:22.283Z,24.29
2022-11-20T18:32:23.724Z,24.33
2022-11-20T18:34:26.100Z,24.38
2022-11-20T18:36:29.214Z,24.42
2022-11-20T18:38:30.874Z,24.45
2022-11-20T18:40:35.172Z,24.46
2022-11-20T18:42:36.781Z,24.46
2022-11-20T18:44:38.421Z,24.46
2022-11-20T18:46:40.092Z,24.46
2022-11-20T18:48:41.717Z,24.44
2022-11-20T18:50:43.400Z,24.46
2022-11-20T18:52:45.031Z,24.47
2022-11-20T18:54:46.687Z,24.49
2022-11-20T18:56:48.463Z,24.49
2022-11-20T18:58:50.092Z,24.44
2022-11-20T19:00:51.760Z,24.47
2022-11-20T19:02:53.809Z,24.46
2022-11-20T19:04:55.852Z,24.45
2022-11-20T19:06:59.191Z,24.46
2022-11-20T19:09:00.967Z,24.39
2022-11-20T19:11:09.422Z,24.30
2022-11-20T19:13:11.314Z,24.24
2022-11-20T19:15:12.928Z,24.19
2022-11-20T19:17:14.588Z,24.15
2022-11-20T19:19:16.707Z,24.13
2022-11-20T19:21:23.865Z,24.10
2022-11-20T19:23:25.595Z,24.07
2022-11-20T19:25:28.368Z,24.08
2022-11-20T19:27:30.063Z,24.06
2022-11-20T19:29:31.762Z,24.07
2022-11-20T19:31:33.509Z,24.05
2022-11-20T19:33:35.150Z,24.07
2022-11-20T19:35:36.790Z,24.11
2022-11-20T19:37:38.466Z,24.12
2022-11-20T19:39:40.271Z,24.12
2022-11-20T19:41:41.951Z,24.11
2022-11-20T19:43:43.727Z,24.08
2022-11-20T19:45:45.417Z,24.09
2022-11-20T19:48:06.818Z,24.05
2022-11-20T19:50:09.205Z,24.03
2022-11-20T19:52:10.924Z,24.01
2022-11-20T19:54:12.754Z,24.00
2022-11-20T19:56:14.471Z,23.99
2022-11-20T19:58:17.224Z,23.98
2022-11-20T20:00:25.601Z,23.95
2022-11-20T20:02:30.665Z,23.94
2022-11-20T20:04:33.324Z,23.93
2022-11-20T20:06:36.116Z,23.91
2022-11-20T20:08:38.165Z,23.92
2022-11-20T20:10:40.170Z,23.93
2022-11-20T20:12:41.832Z,23.90
2022-11-20T20:14:43.605Z,23.88
2022-11-20T20:16:45.350Z,23.86
2022-11-20T20:18:47.093Z,23.83
2022-11-20T20:20:49.683Z,23.81
2022-11-20T20:22:51.508Z,23.77
2022-11-20T20:24:53.312Z,23.75
2022-11-20T20:26:58.129Z,23.71
2022-11-20T20:29:01.618Z,23.68
2022-11-20T20:31:10.413Z,23.66
2022-11-20T20:33:12.188Z,23.64
2022-11-20T20:35:13.934Z,23.63
2022-11-20T20:37:15.613Z,23.63
2022-11-20T20:39:17.395Z,23.59
2022-11-20T20:41:19.501Z,23.58
2022-11-20T20:43:21.132Z,23.58
2022-11-20T20:45:22.917Z,23.58
2022-11-20T20:47:24.643Z,23.57
2022-11-20T20:49:26.615Z,23.54
2022-11-20T20:51:28.571Z,23.53
2022-11-20T20:53:30.781Z,23.51
2022-11-20T20:55:32.519Z,23.51
2022-11-20T20:57:34.166Z,23.47
2022-11-20T20:59:35.882Z,23.47
2022-11-20T21:01:37.641Z,23.45
2022-11-20T21:03:39.468Z,23.41
2022-11-20T21:05:41.215Z,23.37
2022-11-20T21:07:43.008Z,23.36
2022-11-20T21:09:44.851Z,23.34
2022-11-20T21:11:46.540Z,23.32
2022-11-20T21:13:48.592Z,23.29
2022-11-20T21:15:51.169Z,23.27
2022-11-20T21:17:52.891Z,23.25
2022-11-20T21:19:54.610Z,23.23
2022-11-20T21:21:56.278Z,23.23
2022-11-20T21:23:57.922Z,23.21
2022-11-20T21:26:03.705Z,23.20
2022-11-20T21:28:05.360Z,23.19
2022-11-20T21:30:07.685Z,23.18
2022-11-20T21:32:09.341Z,23.16
2022-11-20T21:34:14.213Z,23.16
2022-11-20T21:36:17.526Z,23.15
2022-11-20T21:38:19.195Z,23.13
2022-11-20T21:40:20.921Z,23.11
2022-11-20T21:42:22.592Z,23.11
2022-11-20T21:44:30.972Z,23.09
2022-11-20T21:46:44.492Z,23.07
2022-11-20T21:48:46.644Z,23.07
2022-11-20T21:50:48.359Z,23.04
2022-11-20T21:52:50.082Z,23.04
2022-11-20T21:54:51.853Z,23.04
2022-11-20T21:56:53.674Z,23.03
2022-11-20T21:58:55.517Z,23.02
2022-11-20T22:00:57.309Z,23.03
2022-11-20T22:02:59.028Z,23.01
2022-11-20T22:05:00.768Z,23.02
2022-11-20T22:07:02.517Z,23.01
2022-11-20T22:09:04.337Z,23.01
2022-11-20T22:11:10.676Z,23.01
2022-11-20T22:13:12.355Z,23.02
2022-11-20T22:15:14.181Z,23.02
2022-11-20T22:17:15.870Z,23.02
2022-11-20T22:19:18.076Z,23.01
2022-11-20T22:21:22.343Z,23.01
2022-11-20T22:23:24.043Z,23.00
2022-11-20T22:25:25.716Z,23.00
2022-11-20T22:27:27.447Z,23.00
2022-11-20T22:29:29.170Z,22.99
2022-11-20T22:31:31.012Z,22.97
2022-11-20T22:33:32.810Z,22.97
2022-11-20T22:35:34.520Z,22.97
2022-11-20T22:37:36.268Z,22.97
2022-11-20T22:39:37.912Z,22.97
2022-11-20T22:41:39.576Z,22.96
2022-11-20T22:43:41.992Z,22.95
2022-11-20T22:45:43.779Z,22.94
2022-11-20T22:47:45.602Z,22.94
2022-11-20T22:49:47.235Z,22.93
2022-11-20T22:51:48.912Z,22.92
2022-11-20T22:53:50.777Z,22.93
2022-11-20T22:55:52.492Z,22.93
2022-11-20T22:57:54.288Z,22.93
2022-11-20T22:59:56.019Z,22.92
2022-11-20T23:01:57.685Z,22.93
2022-11-20T23:04:03.904Z,22.92
2022-11-20T23:06:05.712Z,22.91
2022-11-20T23:08:07.432Z,22.91
2022-11-20T23:10:09.644Z,22.92
2022-11-20T23:12:11.373Z,22.90
2022-11-20T23:14:13.773Z,22.91
2022-11-20T23:16:17.331Z,22.92
2022-11-20T23:18:19.064Z,22.89
2022-11-20T23:20:20.889Z,22.90
2022-11-20T23:22:22.585Z,22.90
2022-11-20T23:24:24.627Z,22.90
2022-11-20T23:26:28.358Z,22.90
2022-11-20T23:28:30.146Z,22.90
2022-11-20T23:30:31.943Z,22.91
2022-11-20T23:32:33.757Z,22.91
2022-11-20T23:34:35.462Z,22.89
2022-11-20T23:36:37.118Z,22.89
2022-11-20T23:38:38.908Z,22.89
2022-11-20T23:40:41.524Z,22.89
2022-11-20T23:42:43.343Z,22.89
2022-11-20T23:44:45.042Z,22.89
2022-11-20T23:46:46.804Z,22.89
2022-11-20T23:48:48.562Z,22.90
2022-11-20T23:50:50.379Z,22.89
2022-11-20T23:52:52.356Z,22.89
2022-11-20T23:54:54.064Z,22.90
2022-11-20T23:56:55.785Z,22.90
2022-11-20T23:58:57.564Z,22.89
